Time;durP1;ratioP1;P1;durP2;ratioP2;P2;SDS_P1;SDS_P2;PMS_P1;PMS_P2;Temp;Humidity;BMP_temperature;BMP_pressure;BME280_temperature;BME280_humidity;BME280_pressure;Samples;Min_cycle;Max_cycle;Signal;HPM_P1;HPM_P2
2022/08/03 00:00:00;;;;;;;0.20;0.20;;;;;;;16.89;100.00;100193.34;5103831;28;20085;-68
2022/08/03 00:02:29;;;;;;;0.20;0.20;;;;;;;16.90;100.00;100187.19;5103351;28;20641;-68
2022/08/03 00:04:54;;;;;;;0.20;0.20;;;;;;;16.88;100.00;100189.03;5103481;28;20020;-68
2022/08/03 00:07:19;;;;;;;0.20;0.20;;;;;;;16.94;100.00;100193.16;5103565;28;20046;-68
2022/08/03 00:09:44;;;;;;;0.20;0.20;;;;;;;16.95;100.00;100187.00;5103364;28;20051;-68
2022/08/03 00:12:10;;;;;;;0.20;0.20;;;;;;;16.92;100.00;100181.88;5103350;28;20020;-68
2022/08/03 00:14:35;;;;;;;0.20;0.20;;;;;;;16.95;100.00;100182.63;5103214;28;20495;-68
2022/08/03 00:17:01;;;;;;;0.20;0.20;;;;;;;17.01;100.00;100184.16;5103061;28;20044;-69
2022/08/03 00:19:27;;;;;;;0.22;0.22;;;;;;;17.03;100.00;100200.69;5103525;28;20028;-68
2022/08/03 00:21:53;;;;;;;0.20;0.20;;;;;;;17.06;100.00;100186.59;5103186;28;20032;-68
2022/08/03 00:24:19;;;;;;;0.20;0.20;;;;;;;17.08;100.00;100190.03;5103385;28;20047;-68
2022/08/03 00:26:53;;;;;;;0.20;0.20;;;;;;;17.10;100.00;100188.22;5103330;28;20065;-68
2022/08/03 00:29:31;;;;;;;0.20;0.20;;;;;;;17.12;100.00;100188.16;5103093;28;20043;-68
2022/08/03 00:31:57;;;;;;;0.20;0.20;;;;;;;17.14;100.00;100186.34;5103344;28;20020;-67
2022/08/03 00:34:22;;;;;;;0.20;0.20;;;;;;;17.16;100.00;100189.72;5103147;28;20077;-67
2022/08/03 00:36:50;;;;;;;0.40;0.40;;;;;;;17.17;100.00;100186.22;5103100;28;20032;-67
2022/08/03 00:39:16;;;;;;;0.20;0.20;;;;;;;17.17;100.00;100181.78;5103109;28;20032;-66
2022/08/03 00:42:06;;;;;;;0.20;0.20;;;;;;;17.17;100.00;100187.03;5103136;28;20024;-67
2022/08/03 00:44:44;;;;;;;0.20;0.20;;;;;;;17.19;100.00;100187.84;5102978;28;20020;-67
2022/08/03 00:47:11;;;;;;;0.20;0.20;;;;;;;17.18;100.00;100188.78;5106802;28;20028;-68
2022/08/03 00:49:38;;;;;;;0.20;0.20;;;;;;;17.20;100.00;100186.09;5088833;28;20388;-67
2022/08/03 00:52:09;;;;;;;0.20;0.20;;;;;;;17.21;100.00;100187.78;5107152;28;20019;-67
2022/08/03 00:54:39;;;;;;;0.20;0.20;;;;;;;17.22;100.00;100186.88;5107247;28;20020;-67
2022/08/03 00:57:06;;;;;;;0.20;0.20;;;;;;;17.19;100.00;100179.97;5106739;28;20032;-67
2022/08/03 00:59:32;;;;;;;0.25;0.25;;;;;;;17.22;100.00;100185.09;5089043;28;20059;-67
2022/08/03 01:01:57;;;;;;;0.20;0.20;;;;;;;17.25;100.00;100186.75;5107025;28;20134;-67
2022/08/03 01:04:22;;;;;;;0.20;0.20;;;;;;;17.25;100.00;100184.13;5106838;28;20031;-67
2022/08/03 01:06:56;;;;;;;0.20;0.20;;;;;;;17.27;100.00;100186.69;5106794;28;20031;-68
2022/08/03 01:09:34;;;;;;;0.20;0.20;;;;;;;17.26;100.00;100191.09;5107106;28;20062;-68
2022/08/03 01:12:16;;;;;;;0.20;0.20;;;;;;;17.27;100.00;100182.28;5106604;28;20016;-68
2022/08/03 01:14:49;;;;;;;0.28;0.28;;;;;;;17.27;100.00;100182.28;5106802;28;20044;-68
2022/08/03 01:17:22;;;;;;;0.20;0.20;;;;;;;17.19;100.00;100168.63;5106603;28;20040;-67
2022/08/03 01:19:59;;;;;;;0.20;0.20;;;;;;;17.29;100.00;100179.59;5106792;28;20024;-67
2022/08/03 01:23:02;;;;;;;0.20;0.20;;;;;;;17.27;100.00;100187.53;5106587;28;20594;-67
2022/08/03 01:25:50;;;;;;;0.20;0.20;;;;;;;17.26;100.00;100175.34;5106712;28;20030;-66
2022/08/03 01:28:37;;;;;;;0.20;0.20;;;;;;;17.24;100.00;100177.16;5106154;28;20031;-67
2022/08/03 01:31:07;;;;;;;0.20;0.20;;;;;;;17.22;100.00;100179.84;5106536;28;20170;-67
2022/08/03 01:33:42;;;;;;;0.20;0.20;;;;;;;17.24;100.00;100182.41;5106248;28;20023;-67
2022/08/03 01:36:18;;;;;;;0.20;0.20;;;;;;;17.24;100.00;100171.91;5106390;28;20022;-67
2022/08/03 01:38:49;;;;;;;0.20;0.20;;;;;;;17.25;100.00;100186.75;5106225;28;20053;-67
2022/08/03 01:41:19;;;;;;;0.30;0.30;;;;;;;17.27;100.00;100187.53;5106400;28;20034;-67
2022/08/03 01:43:48;;;;;;;0.20;0.20;;;;;;;17.28;100.00;100177.91;5106083;28;20487;-67
2022/08/03 01:46:16;;;;;;;0.20;0.20;;;;;;;17.28;100.00;100178.78;5106187;28;20073;-66
2022/08/03 01:48:43;;;;;;;0.20;0.20;;;;;;;17.32;100.00;100180.34;5106048;28;20118;-66
2022/08/03 01:51:10;;;;;;;0.20;0.20;;;;;;;17.34;100.00;100170.66;5106229;28;20028;-67
2022/08/03 01:53:41;;;;;;;0.20;0.20;;;;;;;17.33;100.00;100161.03;5106035;28;20024;-68
2022/08/03 01:56:07;;;;;;;0.30;0.30;;;;;;;17.37;100.00;100166.16;5087633;28;20024;-66
2022/08/03 01:58:34;;;;;;;0.30;0.30;;;;;;;17.33;100.00;100168.09;5104555;28;20042;-67
2022/08/03 02:01:01;;;;;;;0.20;0.20;;;;;;;17.37;100.00;100171.41;5105968;28;20024;-67
2022/08/03 02:03:28;;;;;;;0.40;0.40;;;;;;;17.37;100.00;100167.03;5105789;28;20063;-66
2022/08/03 02:05:56;;;;;;;0.20;0.20;;;;;;;17.34;100.00;100152.28;5105832;28;20065;-66
2022/08/03 02:08:23;;;;;;;0.20;0.20;;;;;;;17.30;100.00;100150.69;5105749;28;20042;-66
2022/08/03 02:10:50;;;;;;;0.20;0.20;;;;;;;17.39;100.00;100159.97;5105604;28;20044;-66
2022/08/03 02:13:19;;;;;;;0.20;0.20;;;;;;;17.39;100.00;100159.09;5105336;28;20031;-66
2022/08/03 02:15:45;;;;;;;0.20;0.20;;;;;;;17.40;100.00;100161.66;5105686;28;20016;-66
2022/08/03 02:18:12;;;;;;;0.20;0.20;;;;;;;17.40;100.00;100158.16;5105532;28;20024;-66
2022/08/03 02:20:40;;;;;;;0.20;0.20;;;;;;;17.44;100.00;100155.34;5105773;28;20348;-67
2022/08/03 02:23:06;;;;;;;0.20;0.20;;;;;;;17.48;100.00;100153.47;5105380;28;20083;-67
2022/08/03 02:25:37;;;;;;;0.20;0.20;;;;;;;17.49;100.00;100152.56;5105569;28;20101;-67
2022/08/03 02:28:10;;;;;;;0.30;0.30;;;;;;;17.53;100.00;100155.91;5105368;28;20024;-67
2022/08/03 02:30:39;;;;;;;0.20;0.20;;;;;;;17.54;100.00;100155.84;5105765;28;20040;-67
2022/08/03 02:33:11;;;;;;;0.20;0.20;;;;;;;17.54;100.00;100147.97;5105488;28;20037;-67
2022/08/03 02:35:38;;;;;;;0.30;0.30;;;;;;;17.54;100.00;100147.97;5105132;28;20082;-66
2022/08/03 02:38:09;;;;;;;0.20;0.20;;;;;;;17.55;100.00;100154.94;5104990;28;20105;-66
2022/08/03 02:40:35;;;;;;;0.20;0.20;;;;;;;17.58;100.00;100149.56;5105466;28;20052;-66
2022/08/03 02:43:12;;;;;;;0.20;0.20;;;;;;;17.59;100.00;100155.63;5104881;28;20030;-67
2022/08/03 02:45:43;;;;;;;0.20;0.20;;;;;;;17.60;100.00;100144.25;5105527;28;20024;-66
2022/08/03 02:48:11;;;;;;;0.20;0.20;;;;;;;17.63;100.00;100145.88;5104985;28;20088;-65
2022/08/03 02:50:38;;;;;;;0.20;0.20;;;;;;;17.60;100.00;100141.63;5105072;28;20028;-67
2022/08/03 02:53:05;;;;;;;0.20;0.20;;;;;;;17.65;100.00;100146.66;5086675;28;20031;-65
2022/08/03 02:55:33;;;;;;;0.20;0.20;;;;;;;17.66;100.00;100156.25;5105026;28;20024;-66
2022/08/03 02:57:59;;;;;;;0.20;0.20;;;;;;;17.67;100.00;100136.94;5104560;28;20161;-66
2022/08/03 03:00:25;;;;;;;0.20;0.20;;;;;;;17.66;100.00;100145.75;5105283;28;20020;-65
2022/08/03 03:02:52;;;;;;;0.20;0.20;;;;;;;17.70;100.00;100147.31;5104674;28;20036;-65
2022/08/03 03:05:18;;;;;;;0.20;0.20;;;;;;;17.71;100.00;100139.41;5086343;28;20435;-65
2022/08/03 03:07:44;;;;;;;0.20;0.20;;;;;;;17.74;100.00;100142.78;5104465;28;20020;-64
2022/08/03 03:10:10;;;;;;;0.20;0.20;;;;;;;17.73;100.00;100136.72;5104347;28;20047;-65
2022/08/03 03:12:37;;;;;;;0.20;0.20;;;;;;;17.71;100.00;100128.03;5104141;28;20020;-65
2022/08/03 03:15:04;;;;;;;0.20;0.20;;;;;;;17.76;100.00;100147.06;5104733;28;20024;-64
2022/08/03 03:17:31;;;;;;;0.20;0.20;;;;;;;17.76;100.00;100131.31;5104095;28;20051;-64
2022/08/03 03:19:58;;;;;;;0.20;0.20;;;;;;;17.75;100.00;100137.47;5104352;28;20083;-65
2022/08/03 03:22:24;;;;;;;0.20;0.20;;;;;;;17.76;100.00;100128.69;5104347;28;20034;-64
2022/08/03 03:24:50;;;;;;;0.20;0.20;;;;;;;17.76;100.00;100133.94;5104279;28;20103;-65
2022/08/03 03:27:17;;;;;;;0.20;0.20;;;;;;;17.75;100.00;100131.38;5104114;28;20016;-65
2022/08/03 03:29:43;;;;;;;0.20;0.20;;;;;;;17.75;100.00;100134.84;5104147;28;20020;-65
2022/08/03 03:32:08;;;;;;;0.20;0.20;;;;;;;17.75;100.00;100134.84;5104039;28;20024;-65
2022/08/03 03:34:35;;;;;;;0.20;0.20;;;;;;;17.76;100.00;100127.84;5104154;28;20024;-65
2022/08/03 03:37:01;;;;;;;0.20;0.20;;;;;;;17.76;100.00;100123.44;5103975;28;20027;-65
2022/08/03 03:39:26;;;;;;;0.20;0.20;;;;;;;17.71;100.00;100113.16;5104028;28;20032;-64
2022/08/03 03:41:52;;;;;;;0.20;0.20;;;;;;;17.78;100.00;100126.00;5103920;28;20523;-65
2022/08/03 03:44:17;;;;;;;0.20;0.20;;;;;;;17.77;100.00;100126.91;5103712;28;20023;-66
2022/08/03 03:46:43;;;;;;;0.20;0.20;;;;;;;17.78;100.00;100133.88;5104065;28;20201;-67
2022/08/03 03:49:09;;;;;;;0.20;0.20;;;;;;;17.76;100.00;100131.31;5104002;28;20424;-67
2022/08/03 03:51:34;;;;;;;0.20;0.20;;;;;;;17.75;100.00;100126.13;5103589;28;20027;-68
2022/08/03 03:54:04;;;;;;;0.20;0.20;;;;;;;17.74;100.00;100122.66;5103869;28;20024;-68
2022/08/03 03:56:30;;;;;;;0.20;0.20;;;;;;;17.69;100.00;100128.09;5103703;28;20030;-71
2022/08/03 03:58:55;;;;;;;0.20;0.20;;;;;;;17.69;100.00;100128.09;5103590;28;20377;-71
2022/08/03 04:01:21;;;;;;;0.60;0.60;;;;;;;17.68;100.00;100128.16;5103798;28;20035;-71
2022/08/03 04:03:47;;;;;;;0.20;0.20;;;;;;;17.69;100.00;100135.09;5103588;28;20348;-72
2022/08/03 04:11:48;;;;;;;0.20;0.20;;;;;;;17.61;100.00;100122.31;5103642;28;20027;-75
2022/08/03 04:14:16;;;;;;;0.20;0.20;;;;;;;17.64;100.00;100132.69;5103464;28;20028;-76
2022/08/03 04:16:46;;;;;;;0.20;0.20;;;;;;;17.66;100.00;100114.25;5103317;28;20073;-75
2022/08/03 04:19:16;;;;;;;0.20;0.20;;;;;;;17.65;100.00;100121.25;5103513;28;20076;-76
2022/08/03 04:21:46;;;;;;;0.20;0.20;;;;;;;17.61;100.00;100114.44;5103084;28;20024;-76
2022/08/03 04:24:14;;;;;;;0.65;0.65;;;;;;;17.65;100.00;100117.78;5103432;28;20031;-75
2022/08/03 04:26:42;;;;;;;0.20;0.20;;;;;;;17.65;100.00;100115.16;5103457;28;20092;-77
2022/08/03 04:29:10;;;;;;;0.20;0.20;;;;;;;17.64;100.00;100106.44;5103228;28;20016;-78
2022/08/03 04:31:37;;;;;;;0.20;0.20;;;;;;;17.67;100.00;100110.69;5103329;28;20035;-78
2022/08/03 04:34:03;;;;;;;0.20;0.20;;;;;;;17.65;100.00;100102.03;5085096;28;20020;-76
2022/08/03 04:36:32;;;;;;;0.20;0.20;;;;;;;17.60;100.00;100089.13;5103489;28;20047;-77
2022/08/03 04:39:07;;;;;;;0.20;0.20;;;;;;;17.68;100.00;100107.16;5103118;28;20081;-76
2022/08/03 04:41:35;;;;;;;0.20;0.20;;;;;;;17.70;100.00;100113.19;5103213;28;20031;-76
2022/08/03 04:44:01;;;;;;;0.20;0.20;;;;;;;17.73;100.00;100118.31;5102980;28;20020;-77
2022/08/03 04:46:37;;;;;;;0.20;0.20;;;;;;;17.69;100.00;100108.84;5103385;28;20131;-77
2022/08/03 04:49:04;;;;;;;0.20;0.20;;;;;;;17.73;100.00;100110.44;5103044;28;20024;-76
2022/08/03 04:51:30;;;;;;;0.20;0.20;;;;;;;17.74;100.00;100109.53;5103396;28;20479;-75
2022/08/03 04:53:56;;;;;;;0.20;0.20;;;;;;;17.77;100.00;100119.88;5102946;28;20028;-74
2022/08/03 04:56:21;;;;;;;0.20;0.20;;;;;;;17.80;100.00;100118.88;5102932;28;20049;-75
2022/08/03 04:58:46;;;;;;;0.20;0.20;;;;;;;17.81;100.00;100120.63;5084344;28;20073;-77
2022/08/03 05:01:12;;;;;;;0.20;0.20;;;;;;;17.80;100.00;100111.00;5103123;28;20020;-78
2022/08/03 05:03:37;;;;;;;0.20;0.20;;;;;;;17.84;100.00;100118.69;5084611;28;20079;-77
2022/08/03 05:06:03;;;;;;;0.20;0.20;;;;;;;17.89;100.00;100126.38;5103152;28;20087;-78
2022/08/03 05:08:28;;;;;;;0.20;0.20;;;;;;;17.91;100.00;100134.16;5102915;28;20076;-76
2022/08/03 05:10:54;;;;;;;0.20;0.20;;;;;;;17.88;100.00;100135.16;5102911;28;20020;-76
2022/08/03 05:13:20;;;;;;;0.20;0.20;;;;;;;17.84;100.00;100130.97;5102692;28;20044;-75
2022/08/03 05:15:45;;;;;;;0.20;0.20;;;;;;;17.82;100.00;100136.31;5084238;28;20059;-75
2022/08/03 05:18:10;;;;;;;0.20;0.20;;;;;;;17.82;100.00;100132.81;5102675;28;20036;-75
2022/08/03 05:20:36;;;;;;;0.28;0.28;;;;;;;17.82;100.00;100125.81;5102967;28;20102;-74
2022/08/03 05:23:02;;;;;;;0.20;0.20;;;;;;;17.81;100.00;100141.63;5084523;28;20108;-74
2022/08/03 05:25:28;;;;;;;0.20;0.20;;;;;;;17.81;100.00;100142.44;5102991;28;20085;-74
2022/08/03 05:27:54;;;;;;;0.40;0.40;;;;;;;17.79;100.00;100139.06;5102436;28;20477;-73
2022/08/03 05:30:19;;;;;;;0.20;0.20;;;;;;;17.79;100.00;100141.69;5102889;28;20059;-73
2022/08/03 05:32:45;;;;;;;0.20;0.20;;;;;;;17.80;100.00;100139.91;5105252;28;20367;-73
2022/08/03 05:35:10;;;;;;;0.20;0.20;;;;;;;17.78;100.00;100133.88;5106592;28;20491;-75
2022/08/03 05:37:35;;;;;;;0.95;0.95;;;;;;;17.80;100.00;100138.13;5106197;28;20459;-74
2022/08/03 05:40:01;;;;;;;0.20;0.20;;;;;;;17.81;100.00;100154.75;5106323;28;20517;-73
2022/08/03 05:42:26;;;;;;;0.20;0.20;;;;;;;17.80;100.00;100150.41;5106320;28;20028;-73
2022/08/03 05:44:52;;;;;;;0.20;0.20;;;;;;;17.78;100.00;100141.75;5106036;28;20022;-72
2022/08/03 05:47:17;;;;;;;0.20;0.20;;;;;;;17.81;100.00;100133.75;5106281;28;20024;-71
2022/08/03 05:49:42;;;;;;;0.20;0.20;;;;;;;17.86;100.00;100130.91;5106145;28;20024;-70
2022/08/03 05:52:08;;;;;;;0.20;0.20;;;;;;;17.89;100.00;100133.41;5106079;28;20438;-69
2022/08/03 05:54:33;;;;;;;0.20;0.20;;;;;;;17.93;100.00;100127.94;5106358;28;20050;-69
2022/08/03 05:56:59;;;;;;;0.20;0.20;;;;;;;17.99;100.00;100126.81;5106077;28;20048;-69
2022/08/03 05:59:27;;;;;;;0.20;0.20;;;;;;;17.99;100.00;100125.97;5105661;28;20024;-69
2022/08/03 06:01:52;;;;;;;0.20;0.20;;;;;;;18.02;100.00;100131.94;5106054;28;20035;-68
2022/08/03 06:04:18;;;;;;;0.20;0.20;;;;;;;18.02;100.00;100125.84;5105932;28;20036;-68
2022/08/03 06:06:43;;;;;;;0.55;0.52;;;;;;;18.10;100.00;100134.22;5105756;28;20043;-67
2022/08/03 06:09:09;;;;;;;0.20;0.20;;;;;;;18.14;100.00;100137.59;5105684;28;20020;-68
2022/08/03 06:11:35;;;;;;;0.20;0.20;;;;;;;18.15;100.00;100136.66;5105794;28;20030;-67
2022/08/03 06:14:01;;;;;;;0.20;0.20;;;;;;;18.16;100.00;100138.41;5105560;28;20132;-67
2022/08/03 06:16:27;;;;;;;0.20;0.20;;;;;;;18.16;100.00;100144.47;5105510;28;20055;-67
2022/08/03 06:18:52;;;;;;;0.20;0.20;;;;;;;18.25;100.00;100147.63;5105489;28;20035;-67
2022/08/03 06:21:17;;;;;;;0.20;0.20;;;;;;;18.29;100.00;100149.22;5105871;28;20028;-66
2022/08/03 06:23:44;;;;;;;0.20;0.20;;;;;;;18.31;100.00;100142.94;5105391;28;20468;-65
2022/08/03 06:26:10;;;;;;;0.20;0.20;;;;;;;18.30;100.00;100138.63;5105849;28;20046;-66
2022/08/03 06:28:35;;;;;;;0.20;0.20;;;;;;;18.27;100.00;100136.16;5105267;28;20020;-66
2022/08/03 06:31:01;;;;;;;0.20;0.20;;;;;;;18.38;100.00;100140.03;5105498;28;20051;-65
2022/08/03 06:33:26;;;;;;;0.20;0.20;;;;;;;18.39;100.00;100141.75;5105319;28;20024;-65
2022/08/03 06:35:51;;;;;;;0.20;0.20;;;;;;;18.45;100.00;100157.25;5105438;28;20046;-64
2022/08/03 06:38:17;;;;;;;0.20;0.20;;;;;;;18.50;100.00;100142.09;5105217;28;20032;-64
2022/08/03 06:40:42;;;;;;;0.20;0.20;;;;;;;18.57;100.00;100142.69;5105518;28;20115;-64
2022/08/03 06:43:07;;;;;;;0.20;0.20;;;;;;;18.64;100.00;100138.81;5104499;28;20032;-64
2022/08/03 06:45:34;;;;;;;0.30;0.30;;;;;;;18.71;100.00;100134.16;5105505;28;20039;-64
2022/08/03 06:48:07;;;;;;;0.20;0.20;;;;;;;18.78;100.00;100146.09;5104997;28;20016;-63
2022/08/03 06:50:34;;;;;;;0.20;0.20;;;;;;;18.76;100.00;100142.69;5105263;28;20050;-64
2022/08/03 06:53:00;;;;;;;0.20;0.20;;;;;;;18.85;100.00;100140.53;5105100;28;20059;-64
2022/08/03 06:55:25;;;;;;;0.20;0.20;;;;;;;18.88;100.00;100138.59;5105405;28;20024;-64
2022/08/03 06:57:51;;;;;;;0.20;0.20;;;;;;;18.97;100.00;100145.22;5104408;28;20032;-64
2022/08/03 07:00:17;;;;;;;0.20;0.20;;;;;;;19.05;100.00;100143.06;5105073;28;20030;-64
2022/08/03 07:02:43;;;;;;;0.20;0.20;;;;;;;19.07;100.00;100148.25;5104973;28;20030;-65
2022/08/03 07:05:09;;;;;;;0.20;0.20;;;;;;;19.04;100.00;100151.88;5104953;28;20020;-65
2022/08/03 07:07:35;;;;;;;0.20;0.20;;;;;;;19.01;100.00;100136.22;5104898;28;20028;-65
2022/08/03 07:10:01;;;;;;;0.20;0.20;;;;;;;18.97;100.00;100134.69;5086426;28;20020;-62
2022/08/03 07:12:28;;;;;;;0.20;0.20;;;;;;;18.97;100.00;100141.72;5104442;28;20051;-63
2022/08/03 07:14:54;;;;;;;0.20;0.20;;;;;;;18.93;100.00;100133.16;5104529;28;20024;-63
2022/08/03 07:17:20;;;;;;;0.20;0.20;;;;;;;18.93;100.00;100143.66;5104251;28;20044;-63
2022/08/03 07:19:45;;;;;;;0.20;0.20;;;;;;;18.92;100.00;100144.56;5086312;28;20088;-63
2022/08/03 07:22:10;;;;;;;0.20;0.20;;;;;;;18.93;100.00;100135.78;5104460;28;20023;-63
2022/08/03 07:24:36;;;;;;;0.60;0.60;;;;;;;18.91;100.00;100140.25;5104487;28;20028;-62
2022/08/03 07:27:02;;;;;;;0.20;0.20;;;;;;;18.89;100.00;100144.72;5104518;28;20028;-62
2022/08/03 07:29:28;;;;;;;0.63;0.63;;;;;;;18.89;100.00;100142.94;5103942;28;20070;-62
2022/08/03 07:31:53;;;;;;;0.10;0.10;;;;;;;18.90;100.00;100143.78;5104279;28;20422;-63
2022/08/03 07:34:18;;;;;;;0.20;0.20;;;;;;;18.92;100.00;100148.06;5104183;28;20286;-63
2022/08/03 07:36:44;;;;;;;0.20;0.20;;;;;;;18.94;100.00;100150.63;5104439;28;20295;-62
2022/08/03 07:39:09;;;;;;;0.20;0.20;;;;;;;18.92;100.00;100153.31;5104012;28;20048;-63
2022/08/03 07:41:35;;;;;;;0.20;0.20;;;;;;;18.90;100.00;100146.41;5104248;28;20034;-63
2022/08/03 07:44:00;;;;;;;0.20;0.20;;;;;;;18.85;100.00;100145.81;5103740;28;20055;-63
2022/08/03 07:46:25;;;;;;;0.43;0.43;;;;;;;18.81;100.00;100142.47;5104057;28;20028;-63
2022/08/03 07:48:51;;;;;;;0.20;0.20;;;;;;;18.79;100.00;100136.41;5103995;28;20024;-63
2022/08/03 07:51:17;;;;;;;0.20;0.20;;;;;;;18.75;100.00;100129.59;5103862;28;20499;-63
2022/08/03 07:53:42;;;;;;;0.20;0.20;;;;;;;18.70;100.00;100129.81;5103832;28;20028;-63
2022/08/03 07:56:07;;;;;;;0.22;0.22;;;;;;;18.72;100.00;100135.00;5103054;28;20443;-63
2022/08/03 07:58:34;;;;;;;0.20;0.20;;;;;;;18.70;100.00;100127.19;5103473;28;20252;-62
2022/08/03 08:00:59;;;;;;;0.20;0.20;;;;;;;18.70;100.00;100133.31;5103657;28;20028;-64
2022/08/03 08:03:25;;;;;;;0.20;0.20;;;;;;;18.73;100.00;100139.31;5103819;28;20031;-62
2022/08/03 08:05:52;;;;;;;0.20;0.20;;;;;;;18.76;100.00;100153.19;5103884;28;20024;-63
2022/08/03 08:08:18;;;;;;;0.20;0.20;;;;;;;18.78;100.00;100139.97;5103348;28;20027;-63
2022/08/03 08:10:44;;;;;;;0.20;0.20;;;;;;;18.83;100.00;100149.34;5103763;28;20031;-62
2022/08/03 08:13:09;;;;;;;0.20;0.20;;;;;;;18.85;100.00;100140.53;5103348;28;20024;-63
2022/08/03 08:15:35;;;;;;;0.20;0.20;;;;;;;18.82;100.00;100137.13;5103587;28;20016;-62
2022/08/03 08:18:01;;;;;;;0.20;0.20;;;;;;;18.88;100.00;100135.13;5103072;28;20073;-61
2022/08/03 08:20:29;;;;;;;0.20;0.20;;;;;;;18.94;100.00;100133.06;5103809;28;20032;-62
2022/08/03 08:22:59;;;;;;;0.20;0.20;;;;;;;18.98;100.00;100125.84;5103333;28;20084;-59
2022/08/03 08:25:25;;;;;;;0.20;0.20;;;;;;;19.05;100.00;100127.28;5085501;28;20039;-60
2022/08/03 08:27:51;;;;;;;0.20;0.20;;;;;;;19.21;100.00;100129.19;5103201;28;20028;-60
2022/08/03 08:30:18;;;;;;;0.20;0.20;;;;;;;19.35;100.00;100119.75;5103297;28;20064;-62
2022/08/03 08:32:44;;;;;;;0.20;0.20;;;;;;;19.48;100.00;100119.97;5103226;28;20023;-60
2022/08/03 08:35:11;;;;;;;0.20;0.20;;;;;;;19.60;100.00;100132.50;5103322;28;20024;-60
2022/08/03 08:37:37;;;;;;;0.77;0.77;;;;;;;19.69;100.00;100118.03;5103398;28;20028;-60
2022/08/03 08:40:04;;;;;;;0.30;0.30;;;;;;;19.78;100.00;100116.69;5103314;28;20370;-60
2022/08/03 08:42:31;;;;;;;0.20;0.20;;;;;;;19.88;100.00;100120.56;5103287;28;20103;-60
2022/08/03 08:44:57;;;;;;;0.20;0.20;;;;;;;19.93;100.00;100122.97;5103079;28;20233;-60
2022/08/03 08:47:24;;;;;;;0.20;0.20;;;;;;;19.99;100.00;100121.78;5103347;28;20059;-60
2022/08/03 08:49:54;;;;;;;0.20;0.20;;;;;;;20.00;100.00;100116.44;5103154;28;20024;-60
2022/08/03 08:52:29;;;;;;;1.55;1.45;;;;;;;20.01;100.00;100115.53;5103318;28;20024;-59
2022/08/03 08:54:58;;;;;;;0.30;0.30;;;;;;;20.00;100.00;100128.78;5103270;28;20047;-60
2022/08/03 08:57:28;;;;;;;0.30;0.30;;;;;;;20.02;100.00;100119.88;5103112;28;20084;-60
2022/08/03 08:59:55;;;;;;;0.43;0.43;;;;;;;20.06;100.00;100125.84;5102993;28;20032;-60
2022/08/03 09:02:28;;;;;;;0.55;0.55;;;;;;;20.12;100.00;100122.03;5102825;28;20032;-60
2022/08/03 09:04:53;;;;;;;0.20;0.20;;;;;;;20.14;100.00;100126.28;5103189;28;20087;-60
2022/08/03 09:07:19;;;;;;;0.20;0.20;;;;;;;20.14;100.00;100133.34;5104985;28;20016;-60
2022/08/03 09:09:44;;;;;;;0.20;0.20;;;;;;;20.13;100.00;100124.56;5106989;28;20020;-60
2022/08/03 09:12:10;;;;;;;0.20;0.20;;;;;;;20.13;98.41;100124.56;5088537;28;20043;-60
2022/08/03 09:14:35;;;;;;;0.20;0.20;;;;;;;20.05;99.65;100124.13;5088546;28;20099;-59
2022/08/03 09:17:03;;;;;;;0.20;0.20;;;;;;;20.12;99.44;100133.41;5106751;28;20036;-60
2022/08/03 09:19:30;;;;;;;0.20;0.20;;;;;;;20.15;99.61;100127.97;5106868;28;20055;-60
2022/08/03 09:22:16;;;;;;;0.77;0.77;;;;;;;20.27;99.89;100125.63;5106845;28;20053;-60
2022/08/03 09:24:55;;;;;;;0.10;0.10;;;;;;;20.30;99.33;100128.94;5106886;28;20070;-60
2022/08/03 09:27:20;;;;;;;0.52;0.52;;;;;;;20.30;97.48;100125.47;5106928;28;20028;-60
2022/08/03 09:29:53;;;;;;;0.55;0.55;;;;;;;20.28;96.14;100115.00;5106467;28;20024;-60
2022/08/03 09:32:21;;;;;;;0.30;0.30;;;;;;;20.20;96.15;100111.94;5106555;28;20035;-60
2022/08/03 09:34:48;;;;;;;0.20;0.20;;;;;;;20.15;96.31;100121.84;5106774;28;20024;-59
2022/08/03 09:37:15;;;;;;;0.13;0.13;;;;;;;20.17;96.29;100127.91;5106436;28;20020;-60
2022/08/03 09:39:40;;;;;;;0.20;0.20;;;;;;;20.18;96.58;100121.69;5106446;28;20028;-60
2022/08/03 09:42:16;;;;;;;0.20;0.20;;;;;;;20.38;96.30;100115.38;5106622;28;20051;-60
2022/08/03 09:44:44;;;;;;;0.20;0.20;;;;;;;20.49;95.87;100113.91;5106527;28;20339;-60
2022/08/03 09:47:11;;;;;;;0.25;0.25;;;;;;;20.59;96.09;100108.97;5088119;28;20088;-60
2022/08/03 09:49:37;;;;;;;4.72;1.33;;;;;;;20.74;96.09;100108.13;5105930;28;20043;-60
2022/08/03 09:52:14;;;;;;;0.20;0.20;;;;;;;20.84;95.47;100115.50;5106155;28;20031;-60
2022/08/03 09:54:41;;;;;;;0.10;0.10;;;;;;;20.84;94.93;100115.50;5106461;28;20028;-60
2022/08/03 09:57:06;;;;;;;0.30;0.30;;;;;;;20.77;94.79;100110.59;5105676;28;20028;-62
2022/08/03 09:59:33;;;;;;;0.20;0.20;;;;;;;20.67;93.47;100114.69;5105682;28;20024;-63
2022/08/03 10:01:59;;;;;;;0.22;0.22;;;;;;;20.61;92.60;100120.28;5106292;28;20107;-65
2022/08/03 10:04:25;;;;;;;0.20;0.20;;;;;;;20.58;91.13;100107.25;5105983;28;20384;-64
2022/08/03 10:07:08;;;;;;;0.20;0.20;;;;;;;20.50;91.90;100111.19;5105951;28;20051;-63
2022/08/03 10:09:35;;;;;;;0.20;0.20;;;;;;;20.52;91.49;100098.78;5105942;28;20503;-63
2022/08/03 10:12:09;;;;;;;0.20;0.20;;;;;;;20.51;93.39;100097.06;5105800;28;20032;-63
2022/08/03 10:14:40;;;;;;;0.28;0.28;;;;;;;20.51;92.78;100102.34;5105662;28;20035;-63
2022/08/03 10:17:06;;;;;;;0.35;0.35;;;;;;;20.43;93.11;100115.09;5105755;28;20052;-64
2022/08/03 10:19:32;;;;;;;0.30;0.30;;;;;;;20.43;92.72;100128.28;5104765;28;20028;-63
2022/08/03 10:22:03;;;;;;;0.15;0.15;;;;;;;20.31;93.22;100130.66;5105874;28;20016;-62
2022/08/03 10:24:29;;;;;;;3.75;1.85;;;;;;;20.24;94.03;100126.63;5105588;28;20261;-63
2022/08/03 10:27:15;;;;;;;1.88;0.95;;;;;;;20.27;93.65;100115.91;5105450;28;20035;-63
2022/08/03 10:29:50;;;;;;;0.82;0.82;;;;;;;20.26;92.92;100114.22;5105142;28;20059;-62
2022/08/03 10:32:41;;;;;;;0.32;0.32;;;;;;;20.27;92.52;100115.09;5105850;28;20217;-62
2022/08/03 10:35:10;;;;;;;0.20;0.20;;;;;;;20.08;91.52;100104.69;5093156;28;20114;-64
2022/08/03 10:37:41;;;;;;;0.20;0.20;;;;;;;19.85;92.87;100102.31;5105456;28;20073;-65
2022/08/03 10:40:13;;;;;;;0.25;0.25;;;;;;;19.75;93.60;100106.34;5105146;28;20028;-65
2022/08/03 10:42:41;;;;;;;0.80;0.80;;;;;;;19.74;94.40;100100.22;5105401;28;20027;-63
2022/08/03 10:45:13;;;;;;;0.20;0.20;;;;;;;19.75;95.39;100112.47;5105110;28;20043;-63
2022/08/03 10:47:39;;;;;;;0.20;0.20;;;;;;;19.86;95.13;100111.03;5105165;28;20046;-62
2022/08/03 10:50:06;;;;;;;4.95;1.85;;;;;;;19.85;94.79;100104.94;5105039;28;20266;-63
2022/08/03 10:52:31;;;;;;;0.20;0.20;;;;;;;19.91;95.17;100117.78;5105186;28;20024;-63
2022/08/03 10:57:52;;;;;;;0.20;0.20;;;;;;;19.83;93.26;100122.59;5104896;28;20057;-67
2022/08/03 11:00:20;;;;;;;0.30;0.30;;;;;;;19.49;93.89;100116.44;5104932;28;20031;-67
2022/08/03 11:03:05;;;;;;;0.20;0.20;;;;;;;19.25;93.97;100098.31;5104979;28;20024;-66
2022/08/03 11:05:53;;;;;;;0.20;0.20;;;;;;;18.95;95.35;100116.34;5105020;28;20019;-69
2022/08/03 11:08:21;;;;;;;0.77;0.77;;;;;;;18.81;96.82;100116.16;5104799;28;20020;-69
2022/08/03 11:10:48;;;;;;;0.20;0.20;;;;;;;18.80;96.95;100111.84;5104817;28;20038;-69
2022/08/03 11:13:19;;;;;;;0.20;0.20;;;;;;;18.77;97.89;100119.88;5104477;28;20043;-69
2022/08/03 11:15:46;;;;;;;0.88;0.88;;;;;;;18.79;98.66;100129.38;5104575;28;20032;-67
2022/08/03 11:18:14;;;;;;;0.20;0.20;;;;;;;18.89;99.42;100118.41;5104556;28;20025;-70
2022/08/03 11:20:47;;;;;;;0.35;0.35;;;;;;;19.07;99.91;100121.94;5104687;28;20327;-69
2022/08/03 11:23:14;;;;;;;0.20;0.20;;;;;;;19.16;100.00;100113.63;5104586;28;20012;-70
2022/08/03 11:26:11;;;;;;;0.20;0.20;;;;;;;19.47;98.31;100113.88;5104493;28;20119;-70
2022/08/03 11:28:40;;;;;;;0.30;0.30;;;;;;;19.57;99.39;100128.28;5104273;28;20050;-70
2022/08/03 11:31:23;;;;;;;0.47;0.47;;;;;;;19.82;99.05;100121.72;5104283;28;20039;-70